createdAt,value
2019-02-07T00:01:03.634Z,10.68
2019-02-07T00:02:29.646Z,7.45
2019-02-07T00:03:55.200Z,9.20
2019-02-07T00:05:20.827Z,7.42
2019-02-07T00:06:46.439Z,14.20
2019-02-07T00:08:12.227Z,9.13
2019-02-07T00:09:38.004Z,9.58
2019-02-07T00:11:03.596Z,10.35
2019-02-07T00:12:29.108Z,7.83
2019-02-07T00:13:54.881Z,11.70
2019-02-07T00:15:20.667Z,8.85
2019-02-07T00:16:46.257Z,11.65
2019-02-07T00:18:11.974Z,15.10
2019-02-07T00:19:37.577Z,11.10
2019-02-07T00:21:03.348Z,10.40
2019-02-07T00:22:28.959Z,14.15
2019-02-07T00:23:54.616Z,10.18
2019-02-07T00:25:20.188Z,8.40
2019-02-07T00:26:45.683Z,8.15
2019-02-07T00:28:11.385Z,12.73
2019-02-07T00:29:37.087Z,10.13
2019-02-07T00:31:02.628Z,7.80
2019-02-07T00:32:28.217Z,6.85
2019-02-07T00:33:53.689Z,8.38
2019-02-07T00:35:19.248Z,8.30
2019-02-07T00:36:44.709Z,9.35
2019-02-07T00:38:10.316Z,8.90
2019-02-07T00:39:35.892Z,11.22
2019-02-07T00:41:01.364Z,9.08
2019-02-07T00:42:26.934Z,16.80
2019-02-07T00:43:52.551Z,10.55
2019-02-07T00:45:18.560Z,9.53
2019-02-07T00:46:44.107Z,9.13
2019-02-07T00:48:09.713Z,6.12
2019-02-07T00:49:35.152Z,9.28
2019-02-07T00:51:00.735Z,11.50
2019-02-07T00:52:26.300Z,8.08
2019-02-07T00:53:51.772Z,11.85
2019-02-07T00:55:17.479Z,11.57
2019-02-07T00:56:43.029Z,9.53
2019-02-07T00:58:08.628Z,8.45
2019-02-07T00:59:34.237Z,10.53
2019-02-07T01:00:59.945Z,8.93
2019-02-07T01:02:25.523Z,10.82
2019-02-07T01:03:51.111Z,7.03
2019-02-07T01:05:17.307Z,7.28
2019-02-07T01:06:42.855Z,7.30
2019-02-07T01:08:08.768Z,7.70
2019-02-07T01:09:34.693Z,6.90
2019-02-07T01:11:00.305Z,6.87
2019-02-07T01:12:26.012Z,15.13
2019-02-07T01:13:51.776Z,8.00
2019-02-07T01:15:17.660Z,9.48
2019-02-07T01:16:43.127Z,11.08
2019-02-07T01:18:09.115Z,11.12
2019-02-07T01:19:35.350Z,10.23
2019-02-07T01:21:00.894Z,8.35
2019-02-07T01:22:26.376Z,9.38
2019-02-07T01:23:51.945Z,10.05
2019-02-07T01:25:19.795Z,12.90
2019-02-07T01:26:45.256Z,15.50
2019-02-07T01:28:10.939Z,11.33
2019-02-07T01:29:36.430Z,14.10
2019-02-07T01:31:02.329Z,8.75
2019-02-07T01:32:27.824Z,7.78
2019-02-07T01:33:53.434Z,10.70
2019-02-07T01:35:18.958Z,11.22
2019-02-07T01:36:44.620Z,8.38
2019-02-07T01:38:10.123Z,11.57
2019-02-07T01:39:35.817Z,9.38
2019-02-07T01:41:01.407Z,13.15
2019-02-07T01:42:27.044Z,8.50
2019-02-07T01:43:52.519Z,8.70
2019-02-07T01:45:20.092Z,7.72
2019-02-07T01:46:45.559Z,10.95
2019-02-07T01:48:11.037Z,9.93
2019-02-07T01:49:36.605Z,8.15
2019-02-07T01:51:02.069Z,10.72
2019-02-07T01:52:27.660Z,7.60
2019-02-07T01:53:53.143Z,10.38
2019-02-07T01:55:18.626Z,16.45
2019-02-07T01:56:44.199Z,14.85
2019-02-07T01:58:09.785Z,11.03
2019-02-07T01:59:35.260Z,9.05
2019-02-07T02:01:01.272Z,9.88
2019-02-07T02:02:26.829Z,11.40
2019-02-07T02:03:52.294Z,8.68
2019-02-07T02:05:19.006Z,11.80
2019-02-07T02:06:44.865Z,8.25
2019-02-07T02:08:10.561Z,10.65
2019-02-07T02:09:36.249Z,8.18
2019-02-07T02:11:02.093Z,14.20
2019-02-07T02:12:27.964Z,6.17
2019-02-07T02:13:53.433Z,7.87
2019-02-07T02:15:24.429Z,8.15
2019-02-07T02:16:48.513Z,9.63
2019-02-07T02:18:14.373Z,6.58
2019-02-07T02:19:39.940Z,7.87
2019-02-07T02:21:05.641Z,5.62
2019-02-07T02:22:31.219Z,7.20
2019-02-07T02:23:57.080Z,8.48
2019-02-07T02:25:22.779Z,9.50
2019-02-07T02:26:48.248Z,9.88
2019-02-07T02:28:13.813Z,7.08
2019-02-07T02:29:39.607Z,11.18
2019-02-07T02:31:05.212Z,12.50
2019-02-07T02:32:30.764Z,6.97
2019-02-07T02:33:56.239Z,8.83
2019-02-07T02:35:21.692Z,8.80
2019-02-07T02:36:47.306Z,7.45
2019-02-07T02:38:12.875Z,9.45
2019-02-07T02:39:38.367Z,14.95
2019-02-07T02:41:04.000Z,7.25
2019-02-07T02:42:29.455Z,5.75
2019-02-07T02:43:55.042Z,11.28
2019-02-07T02:45:21.019Z,7.03
2019-02-07T02:46:46.636Z,5.70
2019-02-07T02:48:12.288Z,9.30
2019-02-07T02:49:37.848Z,9.75
2019-02-07T02:51:03.675Z,7.72
2019-02-07T02:52:29.117Z,9.75
2019-02-07T02:53:56.544Z,8.53
2019-02-07T02:55:36.320Z,6.15
2019-02-07T02:57:02.028Z,8.08
2019-02-07T02:58:28.012Z,9.93
2019-02-07T02:59:53.544Z,9.80
2019-02-07T03:01:40.184Z,10.25
2019-02-07T03:03:28.498Z,13.80
2019-02-07T03:05:08.148Z,5.85
2019-02-07T03:06:51.289Z,8.35
2019-02-07T03:08:32.466Z,11.08
2019-02-07T03:10:07.626Z,6.05
2019-02-07T03:11:40.761Z,9.00
2019-02-07T03:13:28.186Z,6.55
2019-02-07T03:15:14.186Z,11.33
2019-02-07T03:17:00.364Z,5.20
2019-02-07T03:18:50.652Z,5.97
2019-02-07T03:20:36.199Z,6.47
2019-02-07T03:22:25.052Z,5.83
2019-02-07T03:24:12.164Z,9.98
2019-02-07T03:25:51.948Z,9.90
2019-02-07T03:27:31.571Z,6.25
2019-02-07T03:29:30.779Z,5.83
2019-02-07T03:31:13.342Z,4.87
2019-02-07T03:32:57.645Z,11.28
2019-02-07T03:34:38.973Z,4.17
2019-02-07T03:36:23.453Z,4.42
2019-02-07T03:37:56.732Z,5.62
2019-02-07T03:39:41.388Z,6.08
2019-02-07T03:41:26.476Z,6.20
2019-02-07T03:43:11.346Z,4.45
2019-02-07T03:44:55.865Z,5.15
2019-02-07T03:46:43.300Z,4.60
2019-02-07T03:48:16.000Z,10.82
2019-02-07T03:50:06.529Z,5.37
2019-02-07T03:51:59.839Z,5.75
2019-02-07T03:53:44.296Z,5.10
2019-02-07T03:55:34.843Z,7.62
2019-02-07T03:57:12.398Z,7.87
2019-02-07T03:59:11.838Z,5.08
2019-02-07T04:01:05.576Z,7.25
2019-02-07T04:02:58.900Z,3.58
2019-02-07T04:04:40.526Z,6.97
2019-02-07T04:06:24.045Z,7.12
2019-02-07T04:08:20.237Z,3.95
2019-02-07T04:10:13.758Z,4.85
2019-02-07T04:11:56.689Z,4.08
2019-02-07T04:13:40.993Z,5.53
2019-02-07T04:15:28.504Z,5.00
2019-02-07T04:17:18.676Z,5.28
2019-02-07T04:19:03.241Z,10.15
2019-02-07T04:20:47.525Z,5.95
2019-02-07T04:22:23.777Z,4.72
2019-02-07T04:24:08.148Z,3.92
2019-02-07T04:26:01.700Z,5.17
2019-02-07T04:27:44.345Z,5.05
2019-02-07T04:29:34.416Z,5.60
2019-02-07T04:31:20.854Z,3.65
2019-02-07T04:33:08.149Z,3.75
2019-02-07T04:34:50.949Z,5.65
2019-02-07T04:36:29.952Z,4.08
2019-02-07T04:38:12.656Z,6.28
2019-02-07T04:39:55.523Z,5.25
2019-02-07T04:41:38.480Z,4.28
2019-02-07T04:43:21.334Z,4.05
2019-02-07T04:45:08.637Z,4.30
2019-02-07T04:46:53.054Z,4.53
2019-02-07T04:48:35.852Z,5.70
2019-02-07T04:50:25.973Z,5.00
2019-02-07T04:52:08.713Z,4.00
2019-02-07T04:53:49.294Z,7.17
2019-02-07T04:55:32.030Z,5.60
2019-02-07T04:57:28.075Z,4.97
2019-02-07T04:59:10.423Z,5.62
2019-02-07T05:00:54.826Z,3.85
2019-02-07T05:02:37.676Z,4.22
2019-02-07T05:04:29.665Z,6.85
2019-02-07T05:06:12.832Z,15.20
2019-02-07T05:07:49.724Z,5.50
2019-02-07T05:09:33.360Z,6.75
2019-02-07T05:11:18.797Z,10.23
2019-02-07T05:13:06.567Z,5.00
2019-02-07T05:14:55.341Z,5.10
2019-02-07T05:16:41.284Z,5.45
2019-02-07T05:18:29.780Z,5.28
2019-02-07T05:20:12.931Z,7.83
2019-02-07T05:21:55.594Z,6.10
2019-02-07T05:23:42.661Z,4.12
2019-02-07T05:25:42.881Z,6.62
2019-02-07T05:27:35.102Z,3.80
2019-02-07T05:29:17.893Z,3.70
2019-02-07T05:31:07.093Z,3.80
2019-02-07T05:32:52.134Z,6.35
2019-02-07T05:34:48.657Z,4.55
2019-02-07T05:36:35.793Z,4.10
2019-02-07T05:38:18.993Z,4.28
2019-02-07T05:39:53.826Z,4.05
2019-02-07T05:41:44.160Z,10.45
2019-02-07T05:43:37.255Z,4.90
2019-02-07T05:45:30.635Z,5.80
2019-02-07T05:47:13.561Z,9.90
2019-02-07T05:49:15.903Z,4.00
2019-02-07T05:50:58.797Z,4.62
2019-02-07T05:52:52.678Z,9.98
2019-02-07T05:54:49.061Z,4.35
2019-02-07T05:56:45.126Z,4.17
2019-02-07T05:58:44.109Z,3.98
2019-02-07T06:00:35.645Z,5.42
2019-02-07T06:02:18.256Z,3.85
2019-02-07T06:03:57.260Z,4.33
2019-02-07T06:05:40.328Z,4.53
2019-02-07T06:07:24.705Z,6.05
2019-02-07T06:09:26.901Z,4.50
2019-02-07T06:11:19.751Z,4.15
2019-02-07T06:13:02.776Z,11.25
2019-02-07T06:14:53.138Z,4.60
2019-02-07T06:16:35.878Z,6.87
2019-02-07T06:18:23.030Z,5.40
2019-02-07T06:20:07.296Z,6.83
2019-02-07T06:21:48.412Z,7.78
2019-02-07T06:23:32.833Z,12.47
2019-02-07T06:25:32.359Z,7.50
2019-02-07T06:27:15.632Z,6.78
2019-02-07T06:29:01.465Z,5.33
2019-02-07T06:30:45.867Z,5.40
2019-02-07T06:32:42.306Z,7.25
2019-02-07T06:34:29.164Z,11.33
2019-02-07T06:36:06.954Z,9.43
2019-02-07T06:38:06.209Z,4.83
2019-02-07T06:39:49.020Z,5.42
2019-02-07T06:41:28.019Z,7.92
2019-02-07T06:43:08.688Z,9.03
2019-02-07T06:44:56.035Z,5.25
2019-02-07T06:46:38.973Z,4.30
2019-02-07T06:48:12.467Z,6.40
2019-02-07T06:49:54.642Z,8.15
2019-02-07T06:51:41.951Z,6.60
2019-02-07T06:53:39.786Z,7.47
2019-02-07T06:55:30.727Z,5.05
2019-02-07T06:57:27.023Z,11.15
2019-02-07T06:59:14.100Z,5.47
2019-02-07T07:01:10.651Z,4.20
2019-02-07T07:02:53.393Z,10.58
2019-02-07T07:04:43.424Z,13.50
2019-02-07T07:06:39.967Z,4.80
2019-02-07T07:08:29.232Z,11.08
2019-02-07T07:10:19.372Z,4.83
2019-02-07T07:12:09.764Z,13.70
2019-02-07T07:13:47.869Z,3.98
2019-02-07T07:15:35.436Z,3.85
2019-02-07T07:17:25.475Z,8.70
2019-02-07T07:19:19.259Z,4.72
2019-02-07T07:21:12.420Z,11.95
2019-02-07T07:22:50.812Z,10.63
2019-02-07T07:24:32.497Z,7.92
2019-02-07T07:26:15.458Z,6.08
2019-02-07T07:28:08.565Z,4.00
2019-02-07T07:29:56.069Z,9.70
2019-02-07T07:31:43.809Z,15.85
2019-02-07T07:33:26.834Z,14.75
2019-02-07T07:35:14.012Z,5.05
2019-02-07T07:36:58.484Z,7.50
2019-02-07T07:38:41.369Z,6.65
2019-02-07T07:40:29.634Z,7.28
2019-02-07T07:42:12.488Z,10.55
2019-02-07T07:44:11.822Z,8.78
2019-02-07T07:45:54.744Z,5.80
2019-02-07T07:47:50.905Z,28.70
2019-02-07T07:49:35.304Z,13.32
2019-02-07T07:51:19.913Z,12.78
2019-02-07T07:53:07.094Z,25.68
2019-02-07T07:54:57.627Z,17.50
2019-02-07T07:56:44.804Z,22.17
2019-02-07T07:58:36.084Z,14.78
2019-02-07T08:00:22.141Z,17.45
2019-02-07T08:02:00.652Z,27.25
2019-02-07T08:03:34.059Z,19.87
2019-02-07T08:05:24.100Z,33.98
2019-02-07T08:07:06.555Z,18.30
2019-02-07T08:08:51.044Z,18.62
2019-02-07T08:10:41.604Z,16.45
2019-02-07T08:12:31.982Z,27.73
2019-02-07T08:14:19.396Z,26.52
2019-02-07T08:16:02.427Z,30.17
2019-02-07T08:17:47.496Z,21.25
2019-02-07T08:19:30.381Z,25.80
2019-02-07T08:21:13.557Z,28.95
2019-02-07T08:22:52.130Z,27.93
2019-02-07T08:24:37.209Z,21.90
2019-02-07T08:26:21.592Z,13.95
2019-02-07T08:28:05.416Z,24.30
2019-02-07T08:29:48.488Z,21.12
2019-02-07T08:31:28.564Z,19.02
2019-02-07T08:33:12.961Z,19.67
2019-02-07T08:34:50.476Z,17.50
2019-02-07T08:36:34.871Z,16.02
2019-02-07T08:38:19.218Z,13.53
2019-02-07T08:39:57.623Z,14.87
2019-02-07T08:41:40.598Z,15.70
2019-02-07T08:43:28.235Z,36.70
2019-02-07T08:45:04.301Z,28.80
2019-02-07T08:46:57.769Z,19.50
2019-02-07T08:48:37.241Z,18.32
2019-02-07T08:50:24.406Z,12.53
2019-02-07T08:52:07.040Z,10.72
2019-02-07T08:53:46.029Z,21.37
2019-02-07T08:55:48.740Z,29.67
2019-02-07T08:57:26.266Z,15.63
2019-02-07T08:59:25.696Z,13.72
2019-02-07T09:01:02.498Z,23.75
2019-02-07T09:02:51.728Z,40.45
2019-02-07T09:04:36.268Z,24.47
2019-02-07T09:06:18.799Z,18.85
2019-02-07T09:08:08.665Z,35.92
2019-02-07T09:09:51.595Z,20.88
2019-02-07T09:11:47.854Z,27.65
2019-02-07T09:13:47.100Z,34.40
2019-02-07T09:15:28.676Z,46.48
2019-02-07T09:17:01.720Z,28.92
2019-02-07T09:18:44.460Z,37.23
2019-02-07T09:20:38.829Z,25.68
2019-02-07T09:22:29.200Z,30.57
2019-02-07T09:24:04.854Z,27.82
2019-02-07T09:25:51.964Z,29.20
2019-02-07T09:27:48.200Z,36.95
2019-02-07T09:29:33.148Z,31.73
2019-02-07T09:31:20.345Z,29.20
2019-02-07T09:33:04.745Z,18.32
2019-02-07T09:34:47.642Z,38.67
2019-02-07T09:36:43.985Z,14.40
2019-02-07T09:38:40.203Z,21.82
2019-02-07T09:40:25.740Z,21.20
2019-02-07T09:42:04.035Z,16.65
2019-02-07T09:43:47.755Z,18.55
2019-02-07T09:45:35.695Z,30.57
2019-02-07T09:47:18.644Z,102.35
2019-02-07T09:49:02.956Z,46.75
2019-02-07T09:50:50.492Z,30.10
2019-02-07T09:52:43.940Z,31.30
2019-02-07T09:54:31.105Z,9.38
2019-02-07T09:56:24.291Z,18.40
2019-02-07T09:58:11.373Z,12.78
2019-02-07T09:59:54.305Z,10.05
2019-02-07T10:01:38.615Z,10.58
2019-02-07T10:03:10.688Z,11.60
2019-02-07T10:04:53.521Z,19.12
2019-02-07T10:06:46.777Z,10.18
2019-02-07T10:08:29.664Z,10.45
2019-02-07T10:10:12.725Z,9.15
2019-02-07T10:12:09.149Z,14.30
2019-02-07T10:14:08.427Z,8.88
2019-02-07T10:15:44.389Z,15.20
2019-02-07T10:17:31.664Z,14.10
2019-02-07T10:19:14.316Z,11.75
2019-02-07T10:21:13.588Z,10.65
2019-02-07T10:23:15.772Z,8.50
2019-02-07T10:24:57.763Z,14.03
2019-02-07T10:26:57.263Z,11.15
2019-02-07T10:28:38.024Z,19.30
2019-02-07T10:30:22.437Z,10.65
2019-02-07T10:32:09.852Z,8.20
2019-02-07T10:34:00.183Z,19.40
2019-02-07T10:35:53.405Z,13.35
2019-02-07T10:37:28.364Z,10.98
2019-02-07T10:39:12.807Z,9.63
2019-02-07T10:40:46.563Z,10.35
2019-02-07T10:42:29.989Z,10.85
2019-02-07T10:44:12.855Z,12.55
2019-02-07T10:45:59.917Z,12.23
2019-02-07T10:47:44.255Z,9.30
2019-02-07T10:49:36.600Z,10.25
2019-02-07T10:51:26.920Z,10.18
2019-02-07T10:53:17.492Z,10.95
2019-02-07T10:55:02.062Z,9.70
2019-02-07T10:56:44.975Z,14.18
2019-02-07T10:58:28.117Z,10.35
2019-02-07T11:00:04.417Z,12.13
2019-02-07T11:02:02.084Z,18.85
2019-02-07T11:03:46.288Z,21.25
2019-02-07T11:05:30.104Z,11.45
2019-02-07T11:07:23.351Z,12.73
2019-02-07T11:09:06.118Z,9.60
2019-02-07T11:10:59.370Z,16.67
2019-02-07T11:13:01.842Z,14.58
2019-02-07T11:14:58.187Z,8.68
2019-02-07T11:16:41.326Z,8.85
2019-02-07T11:18:25.472Z,10.60
2019-02-07T11:20:12.369Z,10.30
2019-02-07T11:22:05.470Z,12.35
2019-02-07T11:23:50.022Z,16.77
2019-02-07T11:25:32.748Z,12.35
2019-02-07T11:27:15.582Z,16.15
2019-02-07T11:28:56.295Z,10.13
2019-02-07T11:30:46.574Z,9.18
2019-02-07T11:32:37.518Z,13.55
2019-02-07T11:34:20.080Z,17.30
2019-02-07T11:36:18.684Z,14.05
2019-02-07T11:38:06.156Z,15.68
2019-02-07T11:40:05.448Z,12.47
2019-02-07T11:41:49.912Z,15.28
2019-02-07T11:43:28.143Z,14.28
2019-02-07T11:45:27.129Z,19.92
2019-02-07T11:47:09.952Z,15.00
2019-02-07T11:49:06.837Z,17.55
2019-02-07T11:50:52.369Z,15.43
2019-02-07T11:52:54.709Z,20.08
2019-02-07T11:54:37.365Z,21.02
2019-02-07T11:56:26.460Z,21.52
2019-02-07T11:58:14.808Z,17.07
2019-02-07T12:00:02.141Z,17.02
2019-02-07T12:01:54.028Z,15.88
2019-02-07T12:03:41.212Z,17.60
2019-02-07T12:05:22.801Z,17.87
2019-02-07T12:07:19.358Z,15.60
2019-02-07T12:09:06.730Z,19.62
2019-02-07T12:10:54.521Z,16.10
2019-02-07T12:12:41.722Z,16.10
2019-02-07T12:14:41.260Z,19.73
2019-02-07T12:16:25.851Z,21.93
2019-02-07T12:18:14.687Z,19.92
2019-02-07T12:19:59.151Z,19.00
2019-02-07T12:21:41.897Z,17.35
2019-02-07T12:23:25.063Z,13.38
2019-02-07T12:25:14.249Z,24.85
2019-02-07T12:27:10.478Z,23.65
2019-02-07T12:29:00.888Z,10.80
2019-02-07T12:30:48.166Z,13.13
2019-02-07T12:32:35.735Z,10.88
2019-02-07T12:34:26.306Z,10.25
2019-02-07T12:36:06.721Z,18.52
2019-02-07T12:37:57.009Z,9.28
2019-02-07T12:39:44.577Z,12.45
2019-02-07T12:41:26.040Z,16.40
2019-02-07T12:43:14.684Z,9.00
2019-02-07T12:45:05.004Z,11.33
2019-02-07T12:46:45.913Z,9.68
2019-02-07T12:48:30.449Z,11.15
2019-02-07T12:50:26.266Z,12.80
2019-02-07T12:52:14.963Z,11.08
2019-02-07T12:54:05.314Z,12.30
2019-02-07T12:56:01.511Z,12.30
2019-02-07T12:57:54.671Z,10.93
2019-02-07T12:59:31.749Z,11.48
2019-02-07T13:01:28.100Z,8.35
2019-02-07T13:03:18.312Z,13.22
2019-02-07T13:05:20.928Z,7.80
2019-02-07T13:07:13.855Z,15.28
2019-02-07T13:08:51.657Z,9.53
2019-02-07T13:10:36.321Z,10.53
2019-02-07T13:12:16.799Z,9.58
2019-02-07T13:14:13.190Z,11.08
2019-02-07T13:15:56.296Z,8.40
2019-02-07T13:17:43.757Z,10.48
2019-02-07T13:19:26.931Z,11.38
2019-02-07T13:21:11.345Z,7.78
2019-02-07T13:22:54.212Z,11.03
2019-02-07T13:24:34.221Z,10.45
2019-02-07T13:26:27.780Z,9.73
2019-02-07T13:28:17.916Z,12.73
2019-02-07T13:30:00.931Z,9.93
2019-02-07T13:31:47.862Z,8.28
2019-02-07T13:33:35.606Z,11.03
2019-02-07T13:35:19.968Z,5.80
2019-02-07T13:37:05.024Z,5.72
2019-02-07T13:38:42.761Z,11.40
2019-02-07T13:40:27.376Z,9.98
2019-02-07T13:42:20.551Z,10.43
2019-02-07T13:44:10.618Z,6.30
2019-02-07T13:46:00.992Z,7.72
2019-02-07T13:47:48.357Z,8.88
2019-02-07T13:49:31.207Z,13.80
2019-02-07T13:51:21.393Z,10.28
2019-02-07T13:52:59.129Z,9.63
2019-02-07T13:54:47.187Z,7.45
2019-02-07T13:56:29.130Z,7.95
2019-02-07T13:58:12.040Z,8.85
2019-02-07T13:59:59.642Z,14.65
2019-02-07T14:01:42.613Z,8.98
2019-02-07T14:03:25.775Z,11.22
2019-02-07T14:05:07.970Z,8.30
2019-02-07T14:06:50.642Z,7.00
2019-02-07T14:08:40.745Z,11.08
2019-02-07T14:10:42.562Z,12.70
2019-02-07T14:12:45.521Z,7.83
2019-02-07T14:14:17.553Z,7.30
2019-02-07T14:16:20.033Z,8.40
2019-02-07T14:18:05.748Z,8.70
2019-02-07T14:19:48.219Z,21.97
2019-02-07T14:21:23.634Z,7.15
2019-02-07T14:23:08.047Z,15.78
2019-02-07T14:24:50.821Z,12.65
2019-02-07T14:26:33.297Z,7.45
2019-02-07T14:28:16.110Z,10.23
2019-02-07T14:29:59.964Z,12.45
2019-02-07T14:31:34.959Z,6.85
2019-02-07T14:33:17.872Z,6.72
2019-02-07T14:35:05.034Z,11.20
2019-02-07T14:36:46.761Z,16.50
2019-02-07T14:38:43.634Z,9.60
2019-02-07T14:40:23.086Z,11.38
2019-02-07T14:42:19.259Z,15.18
2019-02-07T14:43:54.557Z,14.13
2019-02-07T14:45:46.563Z,10.82
2019-02-07T14:47:12.143Z,7.40
2019-02-07T14:48:38.185Z,9.28
2019-02-07T14:50:14.265Z,10.30
2019-02-07T14:51:30.989Z,13.58
2019-02-07T14:52:56.542Z,11.57
2019-02-07T14:54:22.534Z,9.85
2019-02-07T14:55:47.996Z,5.75
2019-02-07T14:57:13.689Z,10.58
2019-02-07T14:58:39.286Z,14.65
2019-02-07T15:00:08.304Z,14.23
2019-02-07T15:01:34.009Z,13.93
2019-02-07T15:02:59.682Z,14.73
2019-02-07T15:04:25.467Z,10.93
2019-02-07T15:05:51.476Z,12.82
2019-02-07T15:07:17.070Z,11.48
2019-02-07T15:08:43.650Z,13.72
2019-02-07T15:10:12.826Z,17.48
2019-02-07T15:11:38.357Z,13.25
2019-02-07T15:13:04.279Z,14.58
2019-02-07T15:14:29.926Z,9.83
2019-02-07T15:15:55.545Z,16.70
2019-02-07T15:17:24.574Z,12.88
2019-02-07T15:18:50.348Z,9.85
2019-02-07T15:20:25.809Z,25.23
2019-02-07T15:21:43.481Z,16.82
2019-02-07T15:23:09.103Z,13.18
2019-02-07T15:24:34.557Z,12.60
2019-02-07T15:26:00.550Z,10.75
2019-02-07T15:27:26.144Z,13.70
2019-02-07T15:28:52.251Z,8.10
2019-02-07T15:30:18.934Z,16.02
2019-02-07T15:31:44.480Z,26.52
2019-02-07T15:33:10.646Z,34.23
2019-02-07T15:34:36.537Z,12.43
2019-02-07T15:36:02.054Z,14.45
2019-02-07T15:37:27.973Z,10.00
2019-02-07T15:38:53.522Z,8.93
2019-02-07T15:40:21.665Z,14.65
2019-02-07T15:41:47.646Z,11.95
2019-02-07T15:43:13.458Z,15.55
2019-02-07T15:44:39.193Z,12.85
2019-02-07T15:46:06.665Z,12.60
2019-02-07T15:47:33.082Z,15.05
2019-02-07T15:48:58.690Z,16.42
2019-02-07T15:50:25.028Z,11.93
2019-02-07T15:51:51.162Z,16.30
2019-02-07T15:53:16.836Z,8.73
2019-02-07T15:54:42.517Z,17.87
2019-02-07T15:56:08.526Z,12.73
2019-02-07T15:57:34.445Z,11.05
2019-02-07T15:59:21.756Z,12.13
2019-02-07T16:01:12.211Z,12.07
2019-02-07T16:02:59.725Z,17.27
2019-02-07T16:04:37.546Z,14.85
2019-02-07T16:06:06.070Z,19.30
2019-02-07T16:07:30.428Z,9.28
2019-02-07T16:08:56.008Z,14.58
2019-02-07T16:10:21.873Z,13.03
2019-02-07T16:11:47.398Z,24.10
2019-02-07T16:13:12.884Z,22.73
2019-02-07T16:14:38.578Z,13.78
2019-02-07T16:16:04.275Z,14.98
2019-02-07T16:17:29.869Z,11.10
2019-02-07T16:18:55.621Z,11.97
2019-02-07T16:20:21.375Z,22.35
2019-02-07T16:21:47.013Z,18.30
2019-02-07T16:23:12.511Z,20.10
2019-02-07T16:24:38.325Z,15.72
2019-02-07T16:26:06.330Z,15.78
2019-02-07T16:27:31.977Z,12.93
2019-02-07T16:28:57.482Z,12.18
2019-02-07T16:30:23.398Z,17.00
2019-02-07T16:31:49.187Z,14.55
2019-02-07T16:33:14.995Z,13.88
2019-02-07T16:34:41.077Z,23.07
2019-02-07T16:36:07.298Z,17.55
2019-02-07T16:37:33.216Z,11.05
2019-02-07T16:38:59.436Z,12.85
2019-02-07T16:40:25.480Z,19.17
2019-02-07T16:41:51.188Z,13.00
2019-02-07T16:43:17.909Z,17.10
2019-02-07T16:44:44.648Z,15.85
2019-02-07T16:46:10.261Z,24.37
2019-02-07T16:47:35.956Z,22.27
2019-02-07T16:49:01.547Z,16.23
2019-02-07T16:50:27.491Z,13.25
2019-02-07T16:51:55.829Z,15.00
2019-02-07T16:53:21.379Z,15.98
2019-02-07T16:54:46.985Z,16.15
2019-02-07T16:56:13.292Z,18.57
2019-02-07T16:57:39.114Z,18.98
2019-02-07T16:59:05.383Z,12.53
2019-02-07T17:00:31.604Z,20.75
2019-02-07T17:01:57.429Z,17.23
2019-02-07T17:03:23.149Z,16.62
2019-02-07T17:04:48.792Z,15.65
2019-02-07T17:06:18.023Z,17.02
2019-02-07T17:07:43.644Z,14.35
2019-02-07T17:09:25.638Z,16.42
2019-02-07T17:10:51.377Z,14.53
2019-02-07T17:12:17.261Z,17.92
2019-02-07T17:13:43.005Z,14.45
2019-02-07T17:15:11.078Z,16.65
2019-02-07T17:16:36.745Z,20.92
2019-02-07T17:18:02.375Z,18.32
2019-02-07T17:19:28.269Z,18.35
2019-02-07T17:20:54.070Z,20.60
2019-02-07T17:22:25.021Z,15.03
2019-02-07T17:23:50.689Z,17.57
2019-02-07T17:25:16.689Z,20.95
2019-02-07T17:26:42.279Z,16.05
2019-02-07T17:28:08.050Z,15.55
2019-02-07T17:29:33.893Z,13.75
2019-02-07T17:30:59.541Z,15.00
2019-02-07T17:32:25.177Z,18.10
2019-02-07T17:33:50.841Z,19.25
2019-02-07T17:35:17.520Z,21.15
2019-02-07T17:36:43.156Z,19.55
2019-02-07T17:38:08.670Z,17.12
2019-02-07T17:39:34.269Z,14.93
2019-02-07T17:41:00.091Z,17.62
2019-02-07T17:42:25.602Z,16.27
2019-02-07T17:43:51.195Z,18.35
2019-02-07T17:45:19.657Z,20.30
2019-02-07T17:46:45.530Z,21.33
2019-02-07T17:48:11.152Z,23.15
2019-02-07T17:49:36.878Z,18.55
2019-02-07T17:51:02.459Z,18.40
2019-02-07T17:52:28.476Z,20.48
2019-02-07T17:53:54.147Z,19.37
2019-02-07T17:55:20.437Z,19.27
2019-02-07T17:56:45.893Z,26.15
2019-02-07T17:58:12.146Z,22.13
2019-02-07T17:59:37.759Z,19.48
2019-02-07T18:01:07.760Z,20.65
2019-02-07T18:02:33.278Z,24.50
2019-02-07T18:03:59.112Z,26.85
2019-02-07T18:05:24.889Z,21.23
2019-02-07T18:06:54.841Z,25.65
2019-02-07T18:08:20.768Z,18.25
2019-02-07T18:09:46.717Z,18.95
2019-02-07T18:11:12.406Z,29.18
2019-02-07T18:12:38.296Z,26.12
2019-02-07T18:14:04.387Z,26.65
2019-02-07T18:15:30.720Z,23.70
2019-02-07T18:16:56.723Z,19.70
2019-02-07T18:18:22.609Z,21.23
2019-02-07T18:19:48.417Z,21.52
2019-02-07T18:21:14.514Z,20.52
2019-02-07T18:22:39.991Z,31.85
2019-02-07T18:24:05.618Z,22.07
2019-02-07T18:25:31.257Z,15.93
2019-02-07T18:26:56.748Z,19.98
2019-02-07T18:28:22.340Z,22.00
2019-02-07T18:29:48.026Z,25.08
2019-02-07T18:31:13.778Z,22.37
2019-02-07T18:32:39.444Z,23.20
2019-02-07T18:34:05.367Z,25.80
2019-02-07T18:35:30.945Z,23.45
2019-02-07T18:36:56.524Z,24.90
2019-02-07T18:38:22.267Z,20.10
2019-02-07T18:39:47.780Z,20.85
2019-02-07T18:41:13.391Z,27.73
2019-02-07T18:42:38.881Z,26.35
2019-02-07T18:44:04.484Z,21.82
2019-02-07T18:45:30.169Z,21.65
2019-02-07T18:46:55.798Z,23.57
2019-02-07T18:48:21.430Z,25.45
2019-02-07T18:49:47.000Z,24.47
2019-02-07T18:51:12.993Z,21.70
2019-02-07T18:52:38.696Z,26.50
2019-02-07T18:54:04.316Z,27.87
2019-02-07T18:55:30.064Z,24.27
2019-02-07T18:56:55.983Z,23.38
2019-02-07T18:58:21.642Z,21.35
2019-02-07T18:59:47.124Z,20.57
2019-02-07T19:01:12.922Z,26.37
2019-02-07T19:02:38.536Z,22.50
2019-02-07T19:04:10.605Z,24.57
2019-02-07T19:05:39.204Z,29.95
2019-02-07T19:07:05.726Z,24.60
2019-02-07T19:08:37.251Z,32.05
2019-02-07T19:10:03.266Z,32.85
2019-02-07T19:11:30.160Z,24.10
2019-02-07T19:13:02.771Z,21.65
2019-02-07T19:14:30.525Z,25.27
2019-02-07T19:15:59.144Z,25.57
2019-02-07T19:17:36.568Z,23.67
2019-02-07T19:19:02.206Z,26.57
2019-02-07T19:20:28.548Z,29.82
2019-02-07T19:21:57.170Z,25.88
2019-02-07T19:23:24.140Z,27.58
2019-02-07T19:24:50.049Z,30.65
2019-02-07T19:26:19.156Z,24.37
2019-02-07T19:27:45.054Z,26.27
2019-02-07T19:29:12.247Z,28.27
2019-02-07T19:30:38.990Z,45.67
2019-02-07T19:32:06.291Z,26.02
2019-02-07T19:33:32.197Z,27.35
2019-02-07T19:35:05.660Z,37.38
2019-02-07T19:36:31.591Z,33.90
2019-02-07T19:37:59.541Z,36.03
2019-02-07T19:39:25.009Z,44.50
2019-02-07T19:40:51.897Z,36.30
2019-02-07T19:42:17.764Z,46.05
2019-02-07T19:43:45.584Z,43.63
2019-02-07T19:45:12.024Z,48.63
2019-02-07T19:46:37.768Z,40.17
2019-02-07T19:48:05.997Z,49.00
2019-02-07T19:49:31.478Z,42.00
2019-02-07T19:50:57.182Z,52.50
2019-02-07T19:52:22.900Z,55.52
2019-02-07T19:53:49.490Z,60.20
2019-02-07T19:55:17.466Z,48.23
2019-02-07T19:56:43.050Z,45.35
2019-02-07T19:58:08.861Z,55.17
2019-02-07T19:59:34.879Z,56.60
2019-02-07T20:01:00.553Z,49.10
2019-02-07T20:02:26.094Z,50.52
2019-02-07T20:03:51.741Z,57.35
2019-02-07T20:05:18.382Z,55.15
2019-02-07T20:06:44.179Z,57.75
2019-02-07T20:08:09.966Z,54.38
2019-02-07T20:09:35.733Z,60.35
2019-02-07T20:11:01.482Z,63.42
2019-02-07T20:12:27.085Z,53.50
2019-02-07T20:13:52.737Z,52.27
2019-02-07T20:15:26.611Z,59.93
2019-02-07T20:16:52.341Z,57.00
2019-02-07T20:18:17.884Z,48.38
2019-02-07T20:19:43.591Z,60.17
2019-02-07T20:21:09.306Z,54.93
2019-02-07T20:22:34.967Z,61.42
2019-02-07T20:24:03.099Z,53.10
2019-02-07T20:25:29.155Z,54.90
2019-02-07T20:26:54.977Z,55.92
2019-02-07T20:28:20.561Z,59.05
2019-02-07T20:29:46.166Z,52.80
2019-02-07T20:31:12.205Z,55.03
2019-02-07T20:32:38.160Z,54.70
2019-02-07T20:34:03.929Z,51.53
2019-02-07T20:35:29.668Z,53.42
2019-02-07T20:36:55.184Z,54.95
2019-02-07T20:38:21.011Z,57.85
2019-02-07T20:39:46.525Z,63.73
2019-02-07T20:41:12.190Z,66.70
2019-02-07T20:42:37.801Z,68.17
2019-02-07T20:44:03.473Z,75.00
2019-02-07T20:45:29.304Z,65.65
2019-02-07T20:46:54.803Z,67.90
2019-02-07T20:48:20.460Z,70.05
2019-02-07T20:49:45.965Z,69.35
2019-02-07T20:51:11.501Z,63.30
2019-02-07T20:52:37.026Z,58.87
2019-02-07T20:54:03.351Z,63.33
2019-02-07T20:55:29.244Z,61.13
2019-02-07T20:56:57.541Z,55.00
2019-02-07T20:58:23.224Z,60.48
2019-02-07T20:59:48.930Z,70.40